Amelia Court House, Virginia
Current Conditions -  °F | °C
As of 9:55 PM on Monday 22 Dec 2014 (Local Time) from KW81 Reporting Station
Overcast Overcast  
Wind Chill: 34°   Ceiling: 300
Heat Index: 34°   Visibility: 1.5mi
Dew Point: 33°   Wind: 3mph
Humidity: 95%   Direction: 350°N
Pressure: 30.07"   Gusts: NA
Location:  37.34°N, 77.98°W
Report Text: KW81 230255Z AUTO 35003KT 1 1/2SM OVC003 01/01 A3007 RMK AO1 T00120005
Loading
Personal Weather Stations






























Interactive Weather Map New forecast layout! Learn more

10-Day Weather Forecast

Advertisements
Track Severe Weather on mobile